Time;durP1;ratioP1;P1;durP2;ratioP2;P2;SDS_P1;SDS_P2;PMS_P1;PMS_P2;Temp;Humidity;BMP_temperature;BMP_pressure;BME280_temperature;BME280_humidity;BME280_pressure;Samples;Min_cycle;Max_cycle;Signal;HPM_P1;HPM_P2
2022/11/25 00:08:32;;;;;;;8.95;2.25;;;7.00;99.90;;;;;;6185445;23;20146;-95
2022/11/25 00:11:00;;;;;;;13.93;2.95;;;7.00;99.90;;;;;;6128923;23;20080;-93
2022/11/25 00:14:05;;;;;;;9.88;2.08;;;7.00;99.90;;;;;;6129354;23;20044;-94
2022/11/25 00:16:49;;;;;;;13.27;2.20;;;7.00;99.90;;;;;;6129646;23;20083;-94
2022/11/25 00:26:33;;;;;;;8.80;2.10;;;7.00;99.90;;;;;;6155706;23;20104;-93
2022/11/25 00:29:02;;;;;;;9.18;2.20;;;7.10;99.90;;;;;;6131184;23;20018;-93
2022/11/25 00:31:31;;;;;;;10.95;2.30;;;7.10;99.90;;;;;;6131775;23;20457;-93
2022/11/25 00:37:41;;;;;;;9.65;2.22;;;7.10;99.90;;;;;;6157025;23;20017;-93
2022/11/25 00:40:09;;;;;;;11.90;2.63;;;7.20;99.90;;;;;;6131486;23;20083;-93
2022/11/25 00:46:00;;;;;;;12.07;3.38;;;7.20;99.90;;;;;;6155697;23;20686;-93
2022/11/25 00:48:27;;;;;;;10.93;2.28;;;7.20;99.90;;;;;;6130541;23;20017;-94
2022/11/25 00:50:54;;;;;;;7.30;2.50;;;7.20;99.90;;;;;;6082504;23;20424;-94
2022/11/25 00:53:25;;;;;;;10.00;2.67;;;7.30;99.90;;;;;;6129797;23;20474;-92
2022/11/25 00:56:12;;;;;;;11.20;2.22;;;7.30;99.90;;;;;;6154759;23;20021;-94
2022/11/25 00:59:18;;;;;;;12.93;2.58;;;7.30;99.90;;;;;;6130863;23;20049;-94
2022/11/25 01:02:03;;;;;;;13.18;2.60;;;7.30;99.90;;;;;;6129901;23;20119;-92
2022/11/25 01:05:07;;;;;;;15.57;2.10;;;7.30;99.90;;;;;;6105914;23;20022;-93
2022/11/25 01:07:35;;;;;;;10.07;2.30;;;7.40;99.90;;;;;;6129246;23;20052;-92
2022/11/25 01:10:06;;;;;;;13.07;2.47;;;7.40;99.90;;;;;;6105798;23;20025;-94
2022/11/25 01:16:32;;;;;;;12.40;2.47;;;7.40;99.90;;;;;;6156543;23;20020;-92
2022/11/25 01:22:33;;;;;;;10.90;2.53;;;7.50;99.90;;;;;;6155014;23;20024;-93
2022/11/25 01:32:20;;;;;;;11.07;2.35;;;7.40;99.90;;;;;;6156947;23;20077;-93
2022/11/25 01:34:48;;;;;;;11.43;2.28;;;7.40;99.90;;;;;;6130928;23;20013;-94
2022/11/25 01:41:14;;;;;;;7.20;2.38;;;7.30;99.90;;;;;;6156878;23;20041;-94
2022/11/25 01:44:18;;;;;;;13.60;3.15;;;7.30;99.90;;;;;;6106551;23;20017;-93
2022/11/25 01:46:48;;;;;;;8.93;2.42;;;7.30;99.90;;;;;;6130603;23;20018;-91
2022/11/25 01:49:53;;;;;;;10.95;2.45;;;7.30;99.90;;;;;;6131447;23;20013;-91
2022/11/25 01:52:41;;;;;;;9.40;3.00;;;6.70;99.90;;;;;;6129091;23;20044;-92
2022/11/25 01:59:01;;;;;;;10.38;2.42;;;7.20;99.90;;;;;;6155602;23;20053;-95
2022/11/25 02:01:46;;;;;;;13.65;2.83;;;7.10;99.90;;;;;;6130036;23;20028;-93
2022/11/25 02:04:15;;;;;;;11.32;2.60;;;7.10;99.90;;;;;;6106412;23;20022;-95
2022/11/25 02:07:18;;;;;;;14.00;2.78;;;7.20;99.90;;;;;;6129956;23;20028;-94
2022/11/25 02:10:22;;;;;;;11.32;3.30;;;7.10;99.90;;;;;;6130075;23;20014;-93
2022/11/25 02:12:49;;;;;;;11.75;2.45;;;7.20;99.90;;;;;;6130670;23;20092;-94
2022/11/25 02:15:34;;;;;;;15.52;2.47;;;6.80;99.90;;;;;;6106511;23;20456;-94
2022/11/25 02:22:18;;;;;;;10.10;2.92;;;7.20;99.90;;;;;;6156734;23;20451;-95
2022/11/25 02:24:48;;;;;;;9.65;3.08;;;7.30;99.90;;;;;;6131683;23;20105;-93
2022/11/25 02:27:14;;;;;;;9.32;2.33;;;7.30;99.90;;;;;;6138602;23;20021;-94
2022/11/25 02:30:18;;;;;;;9.68;2.20;;;7.30;99.90;;;;;;6102136;23;20136;-93
2022/11/25 02:33:22;;;;;;;10.68;2.58;;;7.30;99.90;;;;;;6154050;23;20024;-93
2022/11/25 02:39:20;;;;;;;12.63;2.60;;;7.30;99.90;;;;;;6155757;23;20021;-93
2022/11/25 02:45:46;;;;;;;15.73;3.15;;;7.30;99.90;;;;;;6156623;23;20448;-95
2022/11/25 02:48:36;;;;;;;11.13;3.22;;;7.20;99.90;;;;;;6130557;23;20017;-95
2022/11/25 02:58:18;;;;;;;10.95;2.42;;;6.30;99.90;;;;;;6155195;23;20129;-95
2022/11/25 03:01:21;;;;;;;11.13;2.95;;;7.20;99.90;;;;;;6105040;23;20018;-95
2022/11/25 03:07:28;;;;;;;14.40;3.05;;;7.20;99.90;;;;;;6168519;22;20079;-95
2022/11/25 03:10:45;;;;;;;13.57;3.03;;;7.20;99.90;;;;;;6165159;23;20017;-94
2022/11/25 03:13:17;;;;;;;14.88;3.30;;;7.20;99.90;;;;;;6189449;23;20043;-95
2022/11/25 03:23:06;;;;;;;10.63;2.97;;;7.20;99.90;;;;;;6216140;23;20417;-94
2022/11/25 03:36:16;;;;;;;12.65;3.38;;;6.90;99.90;;;;;;6215931;23;20522;-95
2022/11/25 03:38:43;;;;;;;13.35;3.80;;;7.30;99.90;;;;;;6188839;23;20016;-95
2022/11/25 03:41:49;;;;;;;12.90;4.35;;;7.40;99.90;;;;;;6189642;23;20435;-95
2022/11/25 03:44:35;;;;;;;12.85;3.88;;;7.30;99.90;;;;;;6189531;23;20055;-96
2022/11/25 03:58:24;;;;;;;17.75;4.50;;;7.40;99.90;;;;;;6216199;23;20028;-95
2022/11/25 04:01:29;;;;;;;14.02;4.07;;;7.40;99.90;;;;;;6189735;23;20017;-96
2022/11/25 04:07:44;;;;;;;14.10;4.38;;;7.50;99.90;;;;;;6214055;23;20190;-96
2022/11/25 04:10:48;;;;;;;11.98;4.65;;;7.50;99.90;;;;;;6161754;23;20094;-96
2022/11/25 04:17:44;;;;;;;;;;;;;;;;;;;;;
2022/11/25 04:34:59;;;;;;;17.67;4.97;;;7.60;99.90;;;;;;6215908;23;20031;-96
2022/11/25 04:45:08;;;;;;;17.25;5.32;;;7.60;99.90;;;;;;6215011;23;20143;-95
2022/11/25 04:51:25;;;;;;;19.73;5.30;;;7.60;99.90;;;;;;6214281;23;20016;-96
2022/11/25 04:54:37;;;;;;;18.40;6.10;;;7.60;99.90;;;;;;6188720;23;20021;-95
2022/11/25 05:04:35;;;;;;;19.05;5.53;;;7.00;99.90;;;;;;6214753;23;20342;-95
2022/11/25 05:07:32;;;;;;;16.85;5.90;;;7.60;99.90;;;;;;6165298;23;20013;-95
2022/11/25 05:10:01;;;;;;;15.48;6.40;;;7.40;99.90;;;;;;6167393;23;20024;-94
2022/11/25 05:12:28;;;;;;;17.90;6.57;;;7.50;99.90;;;;;;6143839;23;20021;-93
2022/11/25 05:15:15;;;;;;;17.73;6.70;;;7.50;99.90;;;;;;6147352;23;20017;-93
2022/11/25 05:21:27;;;;;;;14.90;6.33;;;7.50;99.90;;;;;;6190814;23;20105;-96
2022/11/25 05:27:57;;;;;;;15.95;6.32;;;7.50;99.90;;;;;;6186066;23;20047;-94
2022/11/25 05:34:37;;;;;;;15.32;6.50;;;7.60;99.90;;;;;;6161082;23;20025;-96
2022/11/25 05:37:41;;;;;;;16.23;6.95;;;7.50;99.90;;;;;;6148115;23;20017;-95
2022/11/25 05:40:49;;;;;;;16.23;6.97;;;7.40;99.90;;;;;;6146614;23;20049;-96
2022/11/25 05:44:27;;;;;;;20.38;7.13;;;7.60;99.90;;;;;;6141984;23;20017;-96
2022/11/25 05:54:50;;;;;;;18.85;7.25;;;7.20;99.90;;;;;;6190600;23;20071;-96
2022/11/25 05:57:36;;;;;;;15.55;6.45;;;7.40;99.90;;;;;;6125645;23;20096;-95
2022/11/25 06:00:09;;;;;;;20.30;7.30;;;7.60;99.90;;;;;;6112416;23;20017;-96
2022/11/25 06:03:18;;;;;;;18.67;7.35;;;7.60;99.90;;;;;;6137813;23;20092;-96
2022/11/25 06:06:42;;;;;;;18.30;6.97;;;8.20;99.90;;;;;;6122871;23;20050;-96
2022/11/25 06:09:29;;;;;;;17.88;8.15;;;7.40;99.90;;;;;;6086672;23;20044;-96
2022/11/25 06:12:01;;;;;;;20.10;9.35;;;7.70;99.90;;;;;;6096240;23;20126;-96
2022/11/25 06:26:11;;;;;;;16.77;7.18;;;7.60;99.90;;;;;;6039385;23;20018;-96
2022/11/25 06:29:34;;;;;;;;;;;;;;;;;;;;;
2022/11/25 06:44:33;;;;;;;19.27;7.80;;;7.70;99.90;;;;;;6159875;23;20021;-96
2022/11/25 06:51:15;;;;;;;20.17;7.95;;;7.70;99.90;;;;;;6129036;23;20022;-96
2022/11/25 06:57:36;;;;;;;20.85;7.43;;;7.30;99.90;;;;;;6128396;23;20073;-96
2022/11/25 07:00:26;;;;;;;21.10;7.13;;;7.80;99.90;;;;;;6103696;23;20021;-96
2022/11/25 07:07:11;;;;;;;21.15;7.28;;;7.50;99.90;;;;;;6072963;23;20029;-96
2022/11/25 08:05:47;;;;;;;;;;;;;;;;;;;;;
2022/11/25 08:08:59;;;;;;;;;;;;;;;;;;;;;
2022/11/25 08:19:39;;;;;;;;;;;;;;;;;;;;;
2022/11/25 08:23:06;;;;;;;;;;;;;;;;;;;;;
2022/11/25 08:26:42;;;;;;;;;;;;;;;;;;;;;
2022/11/25 08:41:12;;;;;;;6.30;3.03;;;8.30;99.90;;;;;;6012913;23;20030;-95
2022/11/25 08:52:01;;;;;;;7.28;3.03;;;8.30;99.90;;;;;;6186197;23;20080;-94
2022/11/25 08:54:46;;;;;;;7.95;3.45;;;8.40;99.90;;;;;;6137706;23;20064;-94
2022/11/25 08:57:12;;;;;;;11.57;3.30;;;8.40;99.90;;;;;;6160814;23;20050;-94
2022/11/25 09:00:12;;;;;;;10.70;3.00;;;8.40;99.90;;;;;;6137056;23;20107;-93
2022/11/25 09:02:38;;;;;;;10.10;3.10;;;8.50;99.90;;;;;;6159954;23;20135;-94
2022/11/25 09:05:44;;;;;;;9.90;2.63;;;8.50;99.90;;;;;;6159810;23;20017;-93
2022/11/25 09:08:10;;;;;;;6.85;3.10;;;8.50;99.90;;;;;;6159981;23;20448;-95
2022/11/25 09:10:38;;;;;;;8.40;3.17;;;8.60;99.90;;;;;;6136130;23;20021;-95
2022/11/25 09:13:42;;;;;;;6.22;2.83;;;8.60;99.90;;;;;;6160229;23;20017;-94
2022/11/25 09:16:46;;;;;;;7.65;2.75;;;8.70;99.90;;;;;;6160278;23;20025;-94
2022/11/25 09:19:15;;;;;;;9.80;3.13;;;8.70;99.90;;;;;;6161029;23;20456;-96
2022/11/25 09:22:21;;;;;;;10.45;3.35;;;8.80;99.90;;;;;;6138806;23;20405;-96
2022/11/25 09:25:06;;;;;;;10.80;3.55;;;8.80;99.90;;;;;;6163917;23;20083;-96
2022/11/25 09:27:58;;;;;;;10.10;2.58;;;8.80;99.90;;;;;;6145003;23;20101;-96
2022/11/25 09:38:28;;;;;;;6.95;2.63;;;8.90;99.90;;;;;;6190743;23;20063;-96
2022/11/25 09:49:25;;;;;;;10.32;3.00;;;8.60;99.90;;;;;;6196933;23;20094;-96
2022/11/25 09:56:45;;;;;;;;;;;;;;;;;;;;;
2022/11/25 10:00:12;;;;;;;7.28;2.65;;;9.30;99.90;;;;;;6195991;23;20025;-96
2022/11/25 10:03:16;;;;;;;9.60;3.13;;;9.30;99.90;;;;;;6169347;23;20090;-96
2022/11/25 10:06:11;;;;;;;10.05;3.25;;;9.30;99.90;;;;;;6168525;23;20021;-96
2022/11/25 10:12:59;;;;;;;8.70;2.33;;;9.50;99.90;;;;;;6188621;23;20108;-96
2022/11/25 10:15:59;;;;;;;8.55;2.70;;;8.80;99.90;;;;;;6161709;23;20017;-96
2022/11/25 10:19:02;;;;;;;9.50;2.53;;;9.50;99.90;;;;;;6167388;23;20017;-95
2022/11/25 10:21:52;;;;;;;6.82;2.30;;;9.50;99.90;;;;;;6160939;23;20025;-94
2022/11/25 10:24:50;;;;;;;7.45;2.42;;;9.60;99.90;;;;;;6139175;23;20017;-96
2022/11/25 10:31:52;;;;;;;9.25;2.28;;;9.60;99.90;;;;;;6189255;23;20620;-96
2022/11/25 10:42:00;;;;;;;12.52;4.25;;;9.70;99.90;;;;;;6191500;23;20025;-95
2022/11/25 10:55:15;;;;;;;7.55;2.50;;;9.70;99.90;;;;;;6193087;23;20515;-96
2022/11/25 10:57:56;;;;;;;7.85;2.67;;;10.00;99.90;;;;;;6163943;23;20031;-96
2022/11/25 11:01:12;;;;;;;;;;;;;;;;;;;;;
2022/11/25 11:03:53;;;;;;;10.27;2.72;;;10.60;99.90;;;;;;6187041;23;20040;-96
2022/11/25 11:10:26;;;;;;;11.30;2.63;;;10.00;99.90;;;;;;6187599;23;20028;-96
2022/11/25 11:13:17;;;;;;;6.88;2.38;;;10.00;99.90;;;;;;6163609;23;20139;-96
2022/11/25 11:19:45;;;;;;;11.52;2.05;;;10.10;99.90;;;;;;6195777;23;20028;-96
2022/11/25 11:22:49;;;;;;;7.88;2.33;;;10.10;99.90;;;;;;6162616;23;20661;-96
2022/11/25 11:25:18;;;;;;;6.20;2.08;;;10.10;99.90;;;;;;6161443;23;20056;-95
2022/11/25 11:28:08;;;;;;;7.70;2.53;;;10.10;99.90;;;;;;6162744;23;20025;-96
2022/11/25 11:31:21;;;;;;;8.73;2.88;;;10.30;99.90;;;;;;6163076;23;20024;-96
2022/11/25 11:34:14;;;;;;;6.57;1.90;;;10.30;99.90;;;;;;6160632;23;20032;-96
2022/11/25 11:37:16;;;;;;;6.97;2.50;;;10.30;99.90;;;;;;6172473;23;20033;-96
2022/11/25 11:40:20;;;;;;;6.85;2.45;;;10.40;99.90;;;;;;6160310;23;20017;-96
2022/11/25 11:43:08;;;;;;;10.40;2.15;;;10.40;99.90;;;;;;6160440;23;20052;-96
2022/11/25 11:46:29;;;;;;;;;;;;;;;;;;;;;
2022/11/25 11:52:45;;;;;;;9.45;2.17;;;10.30;99.90;;;;;;6183765;23;20032;-95
2022/11/25 12:10:04;;;;;;;;;;;;;;;;;;;;;
2022/11/25 12:13:18;;;;;;;8.23;2.80;;;10.50;99.90;;;;;;6067020;23;20026;-96
2022/11/25 12:16:13;;;;;;;;;;;;;;;;;;;;;
2022/11/25 12:19:38;;;;;;;;;;;;;;;;;;;;;
2022/11/25 12:30:49;;;;;;;;;;;;;;;;;;;;;
2022/11/25 12:34:22;;;;;;;;;;;;;;;;;;;;;
2022/11/25 12:44:48;;;;;;;;;;;;;;;;;;;;;
2022/11/25 12:51:42;;;;;;;;;;;;;;;;;;;;;
2022/11/25 12:55:34;;;;;;;;;;;;;;;;;;;;;
2022/11/25 13:03:08;;;;;;;7.90;1.60;;;10.60;99.90;;;;;;6011873;23;20019;-96
2022/11/25 13:06:21;;;;;;;;;;;;;;;;;;;;;
2022/11/25 13:10:03;;;;;;;;;;;;;;;;;;;;;
2022/11/25 13:13:14;;;;;;;7.78;1.67;;;10.70;99.90;;;;;;6119751;23;20382;-96
2022/11/25 13:16:30;;;;;;;;;;;;;;;;;;;;;
2022/11/25 13:19:56;;;;;;;;;;;;;;;;;;;;;
2022/11/25 13:33:42;;;;;;;10.55;1.60;;;10.40;99.90;;;;;;6098323;23;20065;-96
2022/11/25 13:37:13;;;;;;;;;;;;;;;;;;;;;
2022/11/25 13:43:39;;;;;;;12.18;1.70;;;10.40;99.90;;;;;;6183674;23;20123;-96
2022/11/25 13:46:55;;;;;;;;;;;;;;;;;;;;;
2022/11/25 13:49:41;;;;;;;9.20;2.13;;;10.40;99.90;;;;;;6183820;23;20049;-95
2022/11/25 13:52:51;;;;;;;;;;;;;;;;;;;;;
2022/11/25 13:55:40;;;;;;;;;;;;;;;;;;;;;
2022/11/25 13:58:38;;;;;;;;;;;;;;;;;;;;;
2022/11/25 14:01:54;;;;;;;;;;;;;;;;;;;;;
2022/11/25 14:04:37;;;;;;;;;;;;;;;;;;;;;
2022/11/25 14:11:22;;;;;;;11.95;2.42;;;10.40;99.90;;;;;;6130068;23;20027;-96
2022/11/25 14:17:58;;;;;;;11.77;1.55;;;10.40;99.90;;;;;;6187283;23;20017;-96
2022/11/25 14:20:31;;;;;;;8.50;1.98;;;10.50;99.90;;;;;;6120689;23;20021;-96
2022/11/25 14:26:33;;;;;;;12.70;2.20;;;10.40;99.90;;;;;;6186757;23;20396;-94
2022/11/25 14:29:23;;;;;;;11.30;1.98;;;10.40;99.90;;;;;;6161234;23;20020;-95
2022/11/25 14:31:59;;;;;;;11.80;2.15;;;10.40;99.90;;;;;;6160712;23;20017;-94
2022/11/25 14:34:38;;;;;;;9.05;1.73;;;10.40;99.90;;;;;;6160771;23;20494;-95
2022/11/25 14:37:40;;;;;;;12.73;2.08;;;10.80;99.90;;;;;;6159221;23;20017;-94
2022/11/25 14:40:45;;;;;;;16.83;2.17;;;10.30;99.90;;;;;;6160013;23;20013;-94
2022/11/25 14:43:20;;;;;;;9.40;2.05;;;10.30;99.90;;;;;;6158724;23;20023;-95
2022/11/25 14:45:46;;;;;;;13.63;2.20;;;10.30;99.90;;;;;;6157239;23;20044;-93
2022/11/25 14:48:17;;;;;;;9.50;1.80;;;10.30;99.90;;;;;;6158390;23;20596;-95
2022/11/25 14:51:08;;;;;;;10.82;2.42;;;10.30;99.90;;;;;;6156968;23;20021;-95
2022/11/25 14:57:15;;;;;;;7.60;2.17;;;10.10;99.90;;;;;;6181934;23;20024;-96
2022/11/25 14:59:43;;;;;;;11.70;2.30;;;10.00;99.90;;;;;;6157466;23;20020;-95
2022/11/25 15:02:33;;;;;;;10.55;1.85;;;10.00;99.90;;;;;;6134660;23;20024;-95
2022/11/25 15:05:17;;;;;;;11.75;2.35;;;9.90;99.90;;;;;;6157894;23;20021;-94
2022/11/25 15:08:20;;;;;;;10.18;2.25;;;9.70;99.90;;;;;;6157989;23;20017;-94
2022/11/25 15:10:56;;;;;;;12.65;2.60;;;9.80;99.90;;;;;;6157903;23;20021;-96
2022/11/25 15:14:02;;;;;;;11.10;2.13;;;9.70;99.90;;;;;;6158898;23;20391;-95
2022/11/25 15:16:35;;;;;;;10.35;2.38;;;9.70;99.90;;;;;;6158512;23;20060;-95
2022/11/25 15:19:23;;;;;;;7.95;2.22;;;9.60;99.90;;;;;;6158847;23;20091;-95
2022/11/25 15:22:03;;;;;;;6.88;1.63;;;9.50;99.90;;;;;;6158393;23;20024;-94
2022/11/25 15:28:21;;;;;;;6.65;1.85;;;9.40;99.90;;;;;;6183235;23;20021;-94
2022/11/25 15:31:25;;;;;;;8.82;1.95;;;9.30;99.90;;;;;;6134800;23;20537;-95
2022/11/25 15:37:32;;;;;;;11.27;2.70;;;9.20;99.90;;;;;;6184801;23;20020;-95
2022/11/25 15:40:35;;;;;;;7.57;2.10;;;9.10;99.90;;;;;;6162314;23;20064;-94
2022/11/25 15:43:05;;;;;;;10.45;2.20;;;9.00;99.90;;;;;;6165500;23;20079;-93
2022/11/25 15:45:45;;;;;;;9.65;2.08;;;8.90;99.90;;;;;;6170004;23;20543;-94
2022/11/25 15:55:39;;;;;;;9.02;1.90;;;8.80;99.90;;;;;;6184044;23;20016;-95
2022/11/25 15:58:22;;;;;;;12.57;2.45;;;8.60;99.90;;;;;;6158548;23;20021;-96
2022/11/25 16:04:44;;;;;;;11.38;3.08;;;8.60;99.90;;;;;;6183862;23;20021;-95
2022/11/25 16:07:22;;;;;;;10.60;3.80;;;8.50;99.90;;;;;;6159072;23;20017;-95
2022/11/25 16:13:22;;;;;;;11.82;3.10;;;8.40;99.90;;;;;;6182900;23;19923;-95
2022/11/25 16:16:11;;;;;;;12.00;3.92;;;8.40;99.90;;;;;;6158598;23;20028;-96
2022/11/25 16:19:15;;;;;;;14.13;3.70;;;7.60;99.90;;;;;;6157510;23;20016;-95
2022/11/25 16:21:48;;;;;;;12.68;3.42;;;8.30;99.90;;;;;;6158127;23;20018;-95
2022/11/25 16:24:26;;;;;;;10.35;3.42;;;8.20;99.90;;;;;;6159425;23;20108;-95
2022/11/25 16:27:12;;;;;;;;;;;8.20;99.90;;;;;;6159566;23;20021;-94
2022/11/25 16:30:07;;;;;;;11.82;3.50;;;8.10;99.90;;;;;;6184112;23;20326;-95
2022/11/25 16:33:10;;;;;;;11.48;3.28;;;8.10;99.90;;;;;;6158695;23;20021;-94
2022/11/25 16:35:56;;;;;;;8.57;2.83;;;8.10;99.90;;;;;;6158652;23;20079;-95
2022/11/25 16:45:50;;;;;;;15.38;3.92;;;7.90;99.90;;;;;;6208377;23;20109;-95
2022/11/25 16:48:18;;;;;;;14.68;3.90;;;7.90;99.90;;;;;;6164089;23;20020;-96
2022/11/25 17:01:33;;;;;;;13.50;4.50;;;7.70;99.90;;;;;;6215735;23;20043;-96
2022/11/25 17:04:23;;;;;;;10.98;3.95;;;7.70;99.90;;;;;;6140579;23;20948;-95
2022/11/25 17:10:32;;;;;;;10.57;2.40;;;7.60;99.90;;;;;;6190334;23;20025;-96
2022/11/25 17:12:59;;;;;;;12.60;2.28;;;7.60;99.90;;;;;;6141438;23;20021;-95
2022/11/25 17:25:54;;;;;;;8.07;2.03;;;7.40;99.90;;;;;;6217443;23;20024;-95
2022/11/25 17:38:20;;;;;;;8.90;3.15;;;7.40;99.90;;;;;;6189728;23;20024;-95
2022/11/25 17:41:11;;;;;;;12.43;3.03;;;7.30;99.90;;;;;;6165359;23;20016;-94
2022/11/25 17:43:37;;;;;;;6.78;2.50;;;7.30;99.90;;;;;;6165067;23;20597;-95
2022/11/25 17:46:10;;;;;;;12.00;3.17;;;7.30;99.90;;;;;;6140197;23;20066;-94
2022/11/25 17:48:57;;;;;;;11.73;3.20;;;7.30;99.90;;;;;;6165721;23;20024;-95
2022/11/25 17:51:25;;;;;;;14.13;3.35;;;7.30;99.90;;;;;;6140743;23;20041;-95
2022/11/25 17:54:30;;;;;;;11.18;2.85;;;7.30;99.90;;;;;;6116433;23;20102;-94
2022/11/25 18:00:56;;;;;;;18.53;3.20;;;7.30;99.90;;;;;;6214037;23;20018;-95
2022/11/25 18:03:24;;;;;;;10.48;4.00;;;7.20;99.90;;;;;;6139564;23;20462;-96
2022/11/25 18:06:11;;;;;;;8.98;3.50;;;7.20;99.90;;;;;;6140416;23;20362;-95
2022/11/25 18:08:38;;;;;;;11.27;3.65;;;7.30;99.90;;;;;;6143577;23;20108;-95
2022/11/25 18:11:06;;;;;;;13.50;4.18;;;7.20;99.90;;;;;;6147930;23;20044;-95
2022/11/25 18:13:38;;;;;;;12.27;3.63;;;7.20;99.90;;;;;;6151622;23;20017;-96
2022/11/25 18:16:17;;;;;;;15.93;3.85;;;7.20;99.90;;;;;;6169964;23;20023;-96
2022/11/25 18:19:04;;;;;;;21.48;4.53;;;7.20;99.90;;;;;;6143361;23;20017;-96
2022/11/25 18:22:07;;;;;;;16.02;3.80;;;7.20;99.90;;;;;;6163933;23;20013;-96
2022/11/25 18:24:36;;;;;;;18.13;4.88;;;7.10;99.90;;;;;;6188526;23;20013;-94
2022/11/25 18:27:02;;;;;;;11.40;5.10;;;7.10;99.90;;;;;;6139666;23;20167;-95
2022/11/25 18:29:49;;;;;;;18.30;4.60;;;7.30;99.90;;;;;;6139836;23;20022;-95
2022/11/25 18:32:15;;;;;;;13.20;4.30;;;7.10;99.90;;;;;;6164379;23;20016;-95
2022/11/25 18:38:09;;;;;;;12.88;3.45;;;7.00;99.90;;;;;;6188355;23;20031;-96
2022/11/25 18:40:43;;;;;;;15.27;3.65;;;7.00;99.90;;;;;;6115976;23;20048;-96
2022/11/25 18:43:17;;;;;;;10.88;3.13;;;7.00;99.90;;;;;;6164795;23;20028;-95
2022/11/25 18:45:48;;;;;;;14.50;3.88;;;7.00;99.90;;;;;;6161154;23;20017;-94
2022/11/25 18:48:53;;;;;;;13.48;3.10;;;7.00;99.90;;;;;;6135234;23;20020;-95
2022/11/25 18:51:19;;;;;;;10.40;3.53;;;7.00;99.90;;;;;;6159070;23;20052;-95
2022/11/25 18:53:45;;;;;;;20.83;5.10;;;7.00;99.90;;;;;;6159146;23;20024;-95
2022/11/25 18:56:13;;;;;;;11.88;3.58;;;7.00;99.90;;;;;;6159396;23;20013;-95
2022/11/25 18:58:47;;;;;;;12.40;3.47;;;6.80;99.90;;;;;;6158910;23;20075;-95
2022/11/25 19:04:47;;;;;;;13.02;3.25;;;6.40;99.90;;;;;;6183636;23;20021;-95
2022/11/25 19:07:16;;;;;;;19.63;4.28;;;6.90;99.90;;;;;;6131982;23;20021;-96
2022/11/25 19:10:04;;;;;;;12.30;3.42;;;6.80;99.90;;;;;;6135362;23;20012;-95
2022/11/25 19:27:23;;;;;;;15.48;4.05;;;6.80;99.90;;;;;;6185037;23;20905;-95
2022/11/25 19:30:22;;;;;;;13.13;3.50;;;6.80;99.90;;;;;;6134064;23;20095;-95
2022/11/25 19:32:51;;;;;;;15.23;3.58;;;6.80;99.90;;;;;;6159422;23;20539;-96
2022/11/25 19:35:25;;;;;;;14.13;3.90;;;6.80;99.90;;;;;;6158858;23;20025;-96
2022/11/25 19:38:29;;;;;;;13.95;3.97;;;6.80;99.90;;;;;;6159578;23;20017;-95
2022/11/25 19:41:21;;;;;;;11.43;4.40;;;6.80;99.90;;;;;;6160663;23;20071;-95
2022/11/25 19:47:37;;;;;;;13.55;4.28;;;6.80;99.90;;;;;;6181182;23;20025;-96
2022/11/25 19:50:05;;;;;;;15.52;4.13;;;6.80;99.90;;;;;;6158456;23;20021;-95
2022/11/25 19:52:36;;;;;;;12.82;3.53;;;6.70;99.90;;;;;;6158856;23;20452;-96
2022/11/25 19:59:03;;;;;;;12.13;3.65;;;6.60;99.90;;;;;;6184498;23;20020;-96
2022/11/25 20:05:02;;;;;;;16.80;4.13;;;6.60;99.90;;;;;;6182902;23;20052;-96
2022/11/25 20:07:29;;;;;;;13.07;4.13;;;6.00;99.90;;;;;;6158228;23;20052;-96
2022/11/25 20:10:20;;;;;;;13.35;4.55;;;6.50;99.90;;;;;;6158333;23;20100;-95
2022/11/25 20:13:25;;;;;;;14.23;5.20;;;6.50;99.90;;;;;;6158935;23;20017;-95
2022/11/25 20:26:58;;;;;;;12.63;4.38;;;6.40;99.90;;;;;;6184829;23;20016;-95
2022/11/25 20:29:29;;;;;;;17.20;4.72;;;6.40;99.90;;;;;;6128785;23;20025;-96
2022/11/25 20:35:37;;;;;;;14.73;4.85;;;6.30;99.90;;;;;;6097138;23;20029;-96
2022/11/25 20:38:05;;;;;;;12.90;4.10;;;6.40;99.90;;;;;;6047898;23;20113;-96
2022/11/25 20:40:40;;;;;;;14.73;4.90;;;6.30;99.90;;;;;;6073535;23;20022;-96
2022/11/25 20:46:32;;;;;;;13.50;4.15;;;6.20;99.90;;;;;;6125060;23;20025;-96
2022/11/25 20:52:27;;;;;;;14.63;4.13;;;6.30;99.90;;;;;;6127595;23;20017;-96
2022/11/25 20:55:31;;;;;;;15.73;4.25;;;6.20;99.90;;;;;;6102750;23;20018;-96
2022/11/25 21:05:20;;;;;;;11.90;3.38;;;6.20;99.90;;;;;;6127627;23;20016;-96
2022/11/25 21:07:54;;;;;;;13.30;4.32;;;6.10;99.90;;;;;;6078394;23;20022;-95
2022/11/25 21:10:33;;;;;;;16.00;3.85;;;5.20;99.90;;;;;;6101586;23;20452;-96
2022/11/25 21:16:30;;;;;;;9.27;3.22;;;6.10;99.90;;;;;;6125540;23;20072;-96
2022/11/25 21:19:33;;;;;;;12.18;3.78;;;6.20;99.90;;;;;;6078195;23;20434;-96
2022/11/25 21:22:23;;;;;;;13.43;3.70;;;6.10;99.90;;;;;;6100966;23;20022;-96
2022/11/25 21:24:51;;;;;;;14.63;3.33;;;6.10;99.90;;;;;;6101838;23;20046;-95
2022/11/25 21:30:41;;;;;;;8.10;3.22;;;6.00;99.90;;;;;;6125858;23;20022;-95
2022/11/25 21:33:11;;;;;;;12.32;3.42;;;5.90;99.90;;;;;;6077100;23;20140;-96
2022/11/25 21:35:44;;;;;;;13.43;3.90;;;6.00;99.90;;;;;;6101002;23;20032;-96
2022/11/25 21:38:22;;;;;;;12.43;3.47;;;6.00;99.90;;;;;;6098969;23;20101;-96
2022/11/25 21:41:02;;;;;;;12.10;2.92;;;5.90;99.90;;;;;;6101050;23;20018;-96
2022/11/25 21:43:39;;;;;;;11.45;3.55;;;5.90;99.90;;;;;;6078113;23;20499;-96
2022/11/25 21:46:09;;;;;;;12.15;3.10;;;5.90;99.90;;;;;;6097870;23;20018;-96
2022/11/25 21:49:14;;;;;;;11.40;3.42;;;5.30;99.90;;;;;;6100877;23;20062;-95
2022/11/25 21:51:41;;;;;;;8.32;2.78;;;5.90;99.90;;;;;;6100290;23;20652;-95
2022/11/25 21:54:08;;;;;;;13.20;3.20;;;5.90;99.90;;;;;;6101060;23;20231;-96
2022/11/25 22:00:24;;;;;;;10.90;3.28;;;5.90;99.90;;;;;;6126323;23;20030;-96
2022/11/25 22:02:53;;;;;;;12.15;3.03;;;5.90;99.90;;;;;;6100775;23;20022;-96
2022/11/25 22:05:21;;;;;;;14.82;3.45;;;5.60;99.90;;;;;;6100617;23;20025;-95
2022/11/25 22:07:47;;;;;;;9.63;3.35;;;5.90;99.90;;;;;;6076469;23;20018;-95
2022/11/25 22:10:33;;;;;;;12.60;3.00;;;5.90;99.90;;;;;;6101884;23;20448;-95
2022/11/25 22:17:06;;;;;;;13.35;3.33;;;5.90;99.90;;;;;;6126376;23;20017;-95
2022/11/25 22:19:53;;;;;;;15.23;3.85;;;5.80;99.90;;;;;;6100717;23;20025;-96
2022/11/25 22:22:21;;;;;;;10.02;3.75;;;5.80;99.90;;;;;;6099783;23;20029;-96
2022/11/25 22:24:49;;;;;;;12.70;3.33;;;5.80;99.90;;;;;;6077317;23;20093;-95
2022/11/25 22:31:04;;;;;;;11.38;3.95;;;5.80;99.90;;;;;;6125752;23;20020;-96
2022/11/25 22:33:33;;;;;;;16.88;3.63;;;5.90;99.90;;;;;;6099532;23;20030;-95
2022/11/25 22:36:01;;;;;;;11.68;3.38;;;5.70;99.90;;;;;;6099565;23;20081;-95
2022/11/25 22:38:28;;;;;;;9.02;3.28;;;5.70;99.90;;;;;;6100313;23;20100;-96
2022/11/25 22:41:03;;;;;;;8.77;3.05;;;5.70;99.90;;;;;;6100207;23;20014;-96
2022/11/25 22:43:49;;;;;;;14.90;3.15;;;5.70;99.90;;;;;;6100014;23;20061;-96
2022/11/25 22:46:16;;;;;;;9.73;2.92;;;5.70;99.90;;;;;;6099418;23;20298;-95
2022/11/25 22:48:43;;;;;;;11.02;3.58;;;5.70;99.90;;;;;;6100279;23;20018;-96
2022/11/25 22:51:20;;;;;;;17.48;3.80;;;5.60;99.90;;;;;;6077169;23;20268;-95
2022/11/25 22:53:49;;;;;;;9.27;2.45;;;5.60;99.90;;;;;;6101219;23;20084;-96
2022/11/25 23:00:16;;;;;;;14.90;2.97;;;5.60;99.90;;;;;;6124958;23;20057;-96
2022/11/25 23:02:47;;;;;;;9.35;2.90;;;5.60;99.90;;;;;;6100343;23;20453;-96
2022/11/25 23:05:29;;;;;;;9.65;2.30;;;5.60;99.90;;;;;;6077058;23;20084;-96
2022/11/25 23:07:57;;;;;;;16.20;3.15;;;5.50;99.90;;;;;;6099997;23;20453;-96
2022/11/25 23:13:49;;;;;;;9.50;2.70;;;5.60;99.90;;;;;;6124590;23;20021;-95
2022/11/25 23:16:15;;;;;;;6.72;2.55;;;5.50;99.90;;;;;;6076334;23;20485;-96
2022/11/25 23:18:46;;;;;;;13.57;3.17;;;5.50;99.90;;;;;;6077646;23;20040;-95
2022/11/25 23:21:20;;;;;;;15.43;3.40;;;6.50;99.90;;;;;;6077140;23;20400;-95
2022/11/25 23:23:49;;;;;;;13.73;2.97;;;5.50;99.90;;;;;;6105295;23;20500;-96
2022/11/25 23:26:21;;;;;;;11.90;2.97;;;6.10;99.90;;;;;;6111623;23;20025;-95
2022/11/25 23:28:48;;;;;;;12.85;3.28;;;5.40;99.90;;;;;;6113380;23;20026;-96
2022/11/25 23:31:54;;;;;;;14.82;3.75;;;5.40;99.90;;;;;;6109844;23;20025;-96
2022/11/25 23:34:20;;;;;;;15.93;3.30;;;5.40;99.90;;;;;;6102095;23;20022;-96
2022/11/25 23:37:08;;;;;;;13.40;3.15;;;5.40;99.90;;;;;;6076977;23;20637;-95
2022/11/25 23:43:54;;;;;;;16.67;4.38;;;5.40;99.90;;;;;;6126565;23;20114;-96
2022/11/25 23:46:23;;;;;;;7.70;3.22;;;5.30;99.90;;;;;;6099146;23;20097;-96
2022/11/25 23:49:00;;;;;;;11.05;3.53;;;5.40;99.90;;;;;;6100579;23;20057;-95
2022/11/25 23:55:47;;;;;;;11.95;3.25;;;5.30;99.90;;;;;;6126486;23;20412;-95
2022/11/25 23:58:51;;;;;;;13.68;3.45;;;5.30;99.90;;;;;;6100520;23;20045;-96
